sensor_id;sensor_type;location;lat;lon;timestamp;P1;durP1;ratioP1;P2;durP2;ratioP2
18780;SDS011;9519;51.890;8.970;2023-03-01T00:03:15;12.53;;;8.60;;
18780;SDS011;9519;51.890;8.970;2023-03-01T00:08:18;11.60;;;8.33;;
18780;SDS011;9519;51.890;8.970;2023-03-01T00:13:20;11.73;;;8.10;;
18780;SDS011;9519;51.890;8.970;2023-03-01T00:18:23;11.00;;;8.20;;
18780;SDS011;9519;51.890;8.970;2023-03-01T00:23:27;12.00;;;7.27;;
18780;SDS011;9519;51.890;8.970;2023-03-01T00:28:29;9.73;;;7.30;;
18780;SDS011;9519;51.890;8.970;2023-03-01T00:33:32;12.20;;;7.93;;
18780;SDS011;9519;51.890;8.970;2023-03-01T00:38:36;11.43;;;7.73;;
18780;SDS011;9519;51.890;8.970;2023-03-01T00:43:40;13.20;;;8.67;;
18780;SDS011;9519;51.890;8.970;2023-03-01T00:48:45;12.73;;;8.50;;
18780;SDS011;9519;51.890;8.970;2023-03-01T00:53:49;10.67;;;8.03;;
18780;SDS011;9519;51.890;8.970;2023-03-01T00:58:53;10.77;;;7.83;;
18780;SDS011;9519;51.890;8.970;2023-03-01T01:03:56;10.57;;;7.70;;
18780;SDS011;9519;51.890;8.970;2023-03-01T01:09:02;11.00;;;7.83;;
18780;SDS011;9519;51.890;8.970;2023-03-01T01:14:06;10.97;;;7.33;;
18780;SDS011;9519;51.890;8.970;2023-03-01T01:19:09;11.27;;;7.70;;
18780;SDS011;9519;51.890;8.970;2023-03-01T01:24:13;10.70;;;7.50;;
18780;SDS011;9519;51.890;8.970;2023-03-01T01:29:16;13.70;;;9.53;;
18780;SDS011;9519;51.890;8.970;2023-03-01T01:34:19;15.37;;;8.80;;
18780;SDS011;9519;51.890;8.970;2023-03-01T01:39:24;12.97;;;9.00;;
18780;SDS011;9519;51.890;8.970;2023-03-01T01:44:26;13.43;;;8.53;;
18780;SDS011;9519;51.890;8.970;2023-03-01T01:49:31;10.17;;;7.50;;
18780;SDS011;9519;51.890;8.970;2023-03-01T01:54:41;13.93;;;9.07;;
18780;SDS011;9519;51.890;8.970;2023-03-01T01:59:48;12.50;;;8.17;;
18780;SDS011;9519;51.890;8.970;2023-03-01T02:04:55;11.33;;;8.10;;
18780;SDS011;9519;51.890;8.970;2023-03-01T02:10:11;12.03;;;7.87;;
18780;SDS011;9519;51.890;8.970;2023-03-01T02:15:15;12.57;;;8.53;;
18780;SDS011;9519;51.890;8.970;2023-03-01T02:20:19;12.67;;;8.70;;
18780;SDS011;9519;51.890;8.970;2023-03-01T02:25:33;12.53;;;8.23;;
18780;SDS011;9519;51.890;8.970;2023-03-01T02:30:47;15.20;;;8.37;;
18780;SDS011;9519;51.890;8.970;2023-03-01T02:36:25;13.20;;;8.90;;
18780;SDS011;9519;51.890;8.970;2023-03-01T02:41:34;18.07;;;9.90;;
18780;SDS011;9519;51.890;8.970;2023-03-01T02:46:44;16.10;;;9.80;;
18780;SDS011;9519;51.890;8.970;2023-03-01T02:57:25;11.70;;;7.73;;
18780;SDS011;9519;51.890;8.970;2023-03-01T03:02:32;11.93;;;7.67;;
18780;SDS011;9519;51.890;8.970;2023-03-01T03:07:39;13.17;;;7.80;;
18780;SDS011;9519;51.890;8.970;2023-03-01T03:12:43;13.93;;;9.30;;
18780;SDS011;9519;51.890;8.970;2023-03-01T03:17:47;15.43;;;9.30;;
18780;SDS011;9519;51.890;8.970;2023-03-01T03:22:51;12.03;;;8.57;;
18780;SDS011;9519;51.890;8.970;2023-03-01T03:27:56;16.33;;;9.30;;
18780;SDS011;9519;51.890;8.970;2023-03-01T03:33:00;15.00;;;8.97;;
18780;SDS011;9519;51.890;8.970;2023-03-01T03:38:03;11.63;;;8.23;;
18780;SDS011;9519;51.890;8.970;2023-03-01T03:43:16;14.53;;;9.13;;
18780;SDS011;9519;51.890;8.970;2023-03-01T03:48:22;14.70;;;9.53;;
18780;SDS011;9519;51.890;8.970;2023-03-01T03:53:26;17.30;;;9.50;;
18780;SDS011;9519;51.890;8.970;2023-03-01T03:58:30;13.67;;;9.27;;
18780;SDS011;9519;51.890;8.970;2023-03-01T04:03:34;15.47;;;8.80;;
18780;SDS011;9519;51.890;8.970;2023-03-01T04:08:36;14.80;;;8.97;;
18780;SDS011;9519;51.890;8.970;2023-03-01T04:13:38;13.63;;;9.20;;
18780;SDS011;9519;51.890;8.970;2023-03-01T04:18:42;13.97;;;8.77;;
18780;SDS011;9519;51.890;8.970;2023-03-01T04:23:44;14.10;;;8.60;;
18780;SDS011;9519;51.890;8.970;2023-03-01T04:28:47;14.60;;;9.87;;
18780;SDS011;9519;51.890;8.970;2023-03-01T04:33:52;15.93;;;9.20;;
18780;SDS011;9519;51.890;8.970;2023-03-01T04:38:56;13.00;;;9.07;;
18780;SDS011;9519;51.890;8.970;2023-03-01T04:43:59;12.47;;;8.67;;
18780;SDS011;9519;51.890;8.970;2023-03-01T04:49:02;13.67;;;8.50;;
18780;SDS011;9519;51.890;8.970;2023-03-01T04:54:05;13.77;;;7.97;;
18780;SDS011;9519;51.890;8.970;2023-03-01T04:59:08;16.57;;;9.67;;
18780;SDS011;9519;51.890;8.970;2023-03-01T05:04:13;11.37;;;8.30;;
18780;SDS011;9519;51.890;8.970;2023-03-01T05:09:16;13.33;;;8.63;;
18780;SDS011;9519;51.890;8.970;2023-03-01T05:14:18;11.80;;;8.37;;
18780;SDS011;9519;51.890;8.970;2023-03-01T05:19:23;13.40;;;8.10;;
18780;SDS011;9519;51.890;8.970;2023-03-01T05:24:27;13.97;;;8.47;;
18780;SDS011;9519;51.890;8.970;2023-03-01T05:29:31;12.30;;;8.80;;
18780;SDS011;9519;51.890;8.970;2023-03-01T05:34:36;14.10;;;9.43;;
18780;SDS011;9519;51.890;8.970;2023-03-01T05:39:39;12.10;;;8.10;;
18780;SDS011;9519;51.890;8.970;2023-03-01T05:44:41;11.80;;;8.10;;
18780;SDS011;9519;51.890;8.970;2023-03-01T05:49:45;18.13;;;9.43;;
18780;SDS011;9519;51.890;8.970;2023-03-01T05:54:49;14.80;;;9.13;;
18780;SDS011;9519;51.890;8.970;2023-03-01T05:59:52;15.63;;;9.03;;
18780;SDS011;9519;51.890;8.970;2023-03-01T06:04:55;16.20;;;9.70;;
18780;SDS011;9519;51.890;8.970;2023-03-01T06:09:58;14.37;;;8.30;;
18780;SDS011;9519;51.890;8.970;2023-03-01T06:15:00;13.73;;;8.40;;
18780;SDS011;9519;51.890;8.970;2023-03-01T06:20:06;12.90;;;8.57;;
18780;SDS011;9519;51.890;8.970;2023-03-01T06:25:13;14.97;;;9.10;;
18780;SDS011;9519;51.890;8.970;2023-03-01T06:30:18;12.87;;;8.00;;
18780;SDS011;9519;51.890;8.970;2023-03-01T06:35:24;15.70;;;9.40;;
18780;SDS011;9519;51.890;8.970;2023-03-01T06:40:30;14.80;;;9.37;;
18780;SDS011;9519;51.890;8.970;2023-03-01T06:45:36;13.57;;;9.43;;
18780;SDS011;9519;51.890;8.970;2023-03-01T06:50:40;15.40;;;10.23;;
18780;SDS011;9519;51.890;8.970;2023-03-01T06:55:42;14.10;;;9.37;;
18780;SDS011;9519;51.890;8.970;2023-03-01T07:00:44;14.53;;;9.13;;
18780;SDS011;9519;51.890;8.970;2023-03-01T07:05:49;16.23;;;10.23;;
18780;SDS011;9519;51.890;8.970;2023-03-01T07:10:54;18.03;;;12.60;;
18780;SDS011;9519;51.890;8.970;2023-03-01T07:15:57;19.93;;;11.70;;
18780;SDS011;9519;51.890;8.970;2023-03-01T07:21:04;19.10;;;11.23;;
18780;SDS011;9519;51.890;8.970;2023-03-01T07:26:07;15.77;;;10.67;;
18780;SDS011;9519;51.890;8.970;2023-03-01T07:31:09;18.63;;;11.60;;
18780;SDS011;9519;51.890;8.970;2023-03-01T07:36:13;17.00;;;10.97;;
18780;SDS011;9519;51.890;8.970;2023-03-01T07:41:15;16.70;;;10.93;;
18780;SDS011;9519;51.890;8.970;2023-03-01T07:46:18;15.40;;;10.57;;
18780;SDS011;9519;51.890;8.970;2023-03-01T07:51:21;13.97;;;10.10;;
18780;SDS011;9519;51.890;8.970;2023-03-01T07:56:24;14.13;;;9.90;;
18780;SDS011;9519;51.890;8.970;2023-03-01T08:01:26;23.63;;;14.63;;
18780;SDS011;9519;51.890;8.970;2023-03-01T08:06:33;17.83;;;11.03;;
18780;SDS011;9519;51.890;8.970;2023-03-01T08:11:36;23.03;;;11.30;;
18780;SDS011;9519;51.890;8.970;2023-03-01T08:16:38;19.20;;;11.77;;
18780;SDS011;9519;51.890;8.970;2023-03-01T08:21:42;20.07;;;12.47;;
18780;SDS011;9519;51.890;8.970;2023-03-01T08:26:44;16.30;;;10.77;;
18780;SDS011;9519;51.890;8.970;2023-03-01T08:31:47;18.00;;;11.37;;
18780;SDS011;9519;51.890;8.970;2023-03-01T08:36:50;17.40;;;10.50;;
18780;SDS011;9519;51.890;8.970;2023-03-01T08:41:53;15.97;;;10.33;;
18780;SDS011;9519;51.890;8.970;2023-03-01T08:46:55;16.40;;;10.37;;
18780;SDS011;9519;51.890;8.970;2023-03-01T08:51:59;15.70;;;10.37;;
18780;SDS011;9519;51.890;8.970;2023-03-01T08:57:03;15.53;;;10.33;;
18780;SDS011;9519;51.890;8.970;2023-03-01T09:02:06;16.53;;;10.57;;
18780;SDS011;9519;51.890;8.970;2023-03-01T09:07:14;15.27;;;10.33;;
18780;SDS011;9519;51.890;8.970;2023-03-01T09:12:17;15.87;;;9.23;;
18780;SDS011;9519;51.890;8.970;2023-03-01T09:17:19;12.77;;;9.33;;
18780;SDS011;9519;51.890;8.970;2023-03-01T09:22:22;14.73;;;10.23;;
18780;SDS011;9519;51.890;8.970;2023-03-01T09:27:24;15.00;;;9.33;;
18780;SDS011;9519;51.890;8.970;2023-03-01T09:32:26;12.90;;;7.53;;
18780;SDS011;9519;51.890;8.970;2023-03-01T09:37:32;10.77;;;7.23;;
18780;SDS011;9519;51.890;8.970;2023-03-01T09:42:37;11.20;;;6.87;;
18780;SDS011;9519;51.890;8.970;2023-03-01T09:47:53;11.40;;;7.63;;
18780;SDS011;9519;51.890;8.970;2023-03-01T09:53:00;12.40;;;7.33;;
18780;SDS011;9519;51.890;8.970;2023-03-01T09:58:14;12.07;;;8.20;;
18780;SDS011;9519;51.890;8.970;2023-03-01T10:03:39;12.50;;;8.13;;
18780;SDS011;9519;51.890;8.970;2023-03-01T10:08:48;12.97;;;7.33;;
18780;SDS011;9519;51.890;8.970;2023-03-01T10:13:59;10.80;;;6.83;;
18780;SDS011;9519;51.890;8.970;2023-03-01T10:19:09;10.93;;;6.97;;
18780;SDS011;9519;51.890;8.970;2023-03-01T10:24:19;11.17;;;6.53;;
18780;SDS011;9519;51.890;8.970;2023-03-01T10:29:23;10.03;;;6.37;;
18780;SDS011;9519;51.890;8.970;2023-03-01T10:34:33;8.63;;;5.87;;
18780;SDS011;9519;51.890;8.970;2023-03-01T10:39:38;12.63;;;6.53;;
18780;SDS011;9519;51.890;8.970;2023-03-01T10:44:58;10.90;;;6.43;;
18780;SDS011;9519;51.890;8.970;2023-03-01T10:50:33;12.47;;;6.93;;
18780;SDS011;9519;51.890;8.970;2023-03-01T10:55:39;10.43;;;6.17;;
18780;SDS011;9519;51.890;8.970;2023-03-01T11:00:45;9.13;;;5.87;;
18780;SDS011;9519;51.890;8.970;2023-03-01T11:05:55;10.53;;;6.00;;
18780;SDS011;9519;51.890;8.970;2023-03-01T11:11:07;9.40;;;5.50;;
18780;SDS011;9519;51.890;8.970;2023-03-01T11:16:22;11.80;;;6.43;;
18780;SDS011;9519;51.890;8.970;2023-03-01T11:21:33;8.13;;;5.40;;
18780;SDS011;9519;51.890;8.970;2023-03-01T11:26:42;9.33;;;5.43;;
18780;SDS011;9519;51.890;8.970;2023-03-01T11:31:51;8.53;;;5.00;;
18780;SDS011;9519;51.890;8.970;2023-03-01T11:36:58;9.67;;;5.67;;
18780;SDS011;9519;51.890;8.970;2023-03-01T11:42:10;9.30;;;6.03;;
18780;SDS011;9519;51.890;8.970;2023-03-01T11:47:25;10.37;;;6.20;;
18780;SDS011;9519;51.890;8.970;2023-03-01T11:53:02;10.83;;;6.60;;
18780;SDS011;9519;51.890;8.970;2023-03-01T11:58:29;10.57;;;5.87;;
18780;SDS011;9519;51.890;8.970;2023-03-01T12:04:08;9.27;;;5.23;;
18780;SDS011;9519;51.890;8.970;2023-03-01T12:09:58;9.57;;;6.00;;
18780;SDS011;9519;51.890;8.970;2023-03-01T12:15:40;7.17;;;4.80;;
18780;SDS011;9519;51.890;8.970;2023-03-01T12:21:03;10.00;;;5.23;;
18780;SDS011;9519;51.890;8.970;2023-03-01T12:26:17;9.57;;;5.70;;
18780;SDS011;9519;51.890;8.970;2023-03-01T12:31:35;9.53;;;6.37;;
18780;SDS011;9519;51.890;8.970;2023-03-01T12:37:16;10.63;;;7.00;;
18780;SDS011;9519;51.890;8.970;2023-03-01T12:42:35;9.30;;;5.40;;
18780;SDS011;9519;51.890;8.970;2023-03-01T12:47:58;11.07;;;5.33;;
18780;SDS011;9519;51.890;8.970;2023-03-01T12:53:26;9.90;;;5.73;;
18780;SDS011;9519;51.890;8.970;2023-03-01T12:58:34;9.53;;;5.23;;
18780;SDS011;9519;51.890;8.970;2023-03-01T13:04:07;8.33;;;5.23;;
18780;SDS011;9519;51.890;8.970;2023-03-01T13:09:27;9.10;;;5.27;;
18780;SDS011;9519;51.890;8.970;2023-03-01T13:14:44;11.27;;;5.10;;
18780;SDS011;9519;51.890;8.970;2023-03-01T13:19:56;8.50;;;5.00;;
18780;SDS011;9519;51.890;8.970;2023-03-01T13:25:11;10.87;;;5.73;;
18780;SDS011;9519;51.890;8.970;2023-03-01T13:30:38;10.93;;;6.50;;
18780;SDS011;9519;51.890;8.970;2023-03-01T13:35:44;12.27;;;6.43;;
18780;SDS011;9519;51.890;8.970;2023-03-01T13:40:57;8.80;;;5.83;;
18780;SDS011;9519;51.890;8.970;2023-03-01T13:46:01;8.77;;;4.90;;
18780;SDS011;9519;51.890;8.970;2023-03-01T13:51:13;9.63;;;5.83;;
18780;SDS011;9519;51.890;8.970;2023-03-01T13:56:16;9.07;;;5.60;;
18780;SDS011;9519;51.890;8.970;2023-03-01T14:01:26;9.03;;;5.80;;
18780;SDS011;9519;51.890;8.970;2023-03-01T14:06:32;11.07;;;6.00;;
18780;SDS011;9519;51.890;8.970;2023-03-01T14:11:50;9.40;;;5.23;;
18780;SDS011;9519;51.890;8.970;2023-03-01T14:17:21;9.20;;;5.10;;
18780;SDS011;9519;51.890;8.970;2023-03-01T14:22:55;9.87;;;5.90;;
18780;SDS011;9519;51.890;8.970;2023-03-01T14:28:02;14.40;;;6.30;;
18780;SDS011;9519;51.890;8.970;2023-03-01T14:33:18;12.07;;;5.57;;
18780;SDS011;9519;51.890;8.970;2023-03-01T14:38:29;10.23;;;5.20;;
18780;SDS011;9519;51.890;8.970;2023-03-01T14:43:35;10.33;;;5.90;;
18780;SDS011;9519;51.890;8.970;2023-03-01T14:48:39;11.63;;;6.23;;
18780;SDS011;9519;51.890;8.970;2023-03-01T14:53:43;8.70;;;5.70;;
18780;SDS011;9519;51.890;8.970;2023-03-01T14:58:46;8.93;;;5.60;;
18780;SDS011;9519;51.890;8.970;2023-03-01T15:03:52;11.20;;;5.97;;
18780;SDS011;9519;51.890;8.970;2023-03-01T15:08:56;11.50;;;5.90;;
18780;SDS011;9519;51.890;8.970;2023-03-01T15:13:59;10.13;;;5.53;;
18780;SDS011;9519;51.890;8.970;2023-03-01T15:19:02;11.20;;;6.07;;
18780;SDS011;9519;51.890;8.970;2023-03-01T15:24:15;9.17;;;4.90;;
18780;SDS011;9519;51.890;8.970;2023-03-01T15:29:24;9.03;;;5.53;;
18780;SDS011;9519;51.890;8.970;2023-03-01T15:34:30;8.63;;;5.10;;
18780;SDS011;9519;51.890;8.970;2023-03-01T15:39:36;9.17;;;5.20;;
18780;SDS011;9519;51.890;8.970;2023-03-01T15:44:43;9.93;;;4.87;;
18780;SDS011;9519;51.890;8.970;2023-03-01T15:49:45;10.17;;;4.80;;
18780;SDS011;9519;51.890;8.970;2023-03-01T15:54:49;7.63;;;4.73;;
18780;SDS011;9519;51.890;8.970;2023-03-01T15:59:51;9.80;;;4.50;;
18780;SDS011;9519;51.890;8.970;2023-03-01T16:04:53;9.30;;;4.57;;
18780;SDS011;9519;51.890;8.970;2023-03-01T16:09:57;7.53;;;4.87;;
18780;SDS011;9519;51.890;8.970;2023-03-01T16:14:59;8.87;;;4.30;;
18780;SDS011;9519;51.890;8.970;2023-03-01T16:20:02;8.80;;;5.10;;
18780;SDS011;9519;51.890;8.970;2023-03-01T16:25:08;7.07;;;4.40;;
18780;SDS011;9519;51.890;8.970;2023-03-01T16:30:11;10.27;;;4.77;;
18780;SDS011;9519;51.890;8.970;2023-03-01T16:35:16;8.30;;;4.50;;
18780;SDS011;9519;51.890;8.970;2023-03-01T16:40:23;8.20;;;4.67;;
18780;SDS011;9519;51.890;8.970;2023-03-01T16:45:28;7.67;;;4.47;;
18780;SDS011;9519;51.890;8.970;2023-03-01T16:50:36;9.93;;;4.33;;
18780;SDS011;9519;51.890;8.970;2023-03-01T16:55:40;9.67;;;4.83;;
18780;SDS011;9519;51.890;8.970;2023-03-01T17:00:45;8.13;;;4.90;;
18780;SDS011;9519;51.890;8.970;2023-03-01T17:05:47;11.53;;;5.60;;
18780;SDS011;9519;51.890;8.970;2023-03-01T17:10:51;10.80;;;6.00;;
18780;SDS011;9519;51.890;8.970;2023-03-01T17:15:53;10.80;;;5.40;;
18780;SDS011;9519;51.890;8.970;2023-03-01T17:20:55;9.00;;;5.33;;
18780;SDS011;9519;51.890;8.970;2023-03-01T17:25:58;10.60;;;5.40;;
18780;SDS011;9519;51.890;8.970;2023-03-01T17:31:01;9.23;;;5.23;;
18780;SDS011;9519;51.890;8.970;2023-03-01T17:36:06;12.43;;;5.97;;
18780;SDS011;9519;51.890;8.970;2023-03-01T17:41:10;10.27;;;5.47;;
18780;SDS011;9519;51.890;8.970;2023-03-01T17:46:12;9.63;;;5.73;;
18780;SDS011;9519;51.890;8.970;2023-03-01T17:51:14;10.90;;;5.43;;
18780;SDS011;9519;51.890;8.970;2023-03-01T17:56:17;15.13;;;7.60;;
18780;SDS011;9519;51.890;8.970;2023-03-01T18:01:20;16.83;;;9.00;;
18780;SDS011;9519;51.890;8.970;2023-03-01T18:06:23;10.97;;;6.10;;
18780;SDS011;9519;51.890;8.970;2023-03-01T18:11:31;10.00;;;5.90;;
18780;SDS011;9519;51.890;8.970;2023-03-01T18:16:35;12.00;;;5.90;;
18780;SDS011;9519;51.890;8.970;2023-03-01T18:21:38;10.97;;;5.93;;
18780;SDS011;9519;51.890;8.970;2023-03-01T18:26:42;11.17;;;6.20;;
18780;SDS011;9519;51.890;8.970;2023-03-01T18:31:44;8.67;;;5.40;;
18780;SDS011;9519;51.890;8.970;2023-03-01T18:36:46;10.53;;;5.80;;
18780;SDS011;9519;51.890;8.970;2023-03-01T18:41:52;14.93;;;6.40;;
18780;SDS011;9519;51.890;8.970;2023-03-01T18:46:54;10.70;;;6.70;;
18780;SDS011;9519;51.890;8.970;2023-03-01T18:51:57;9.97;;;6.07;;
18780;SDS011;9519;51.890;8.970;2023-03-01T18:57:00;10.90;;;6.77;;
18780;SDS011;9519;51.890;8.970;2023-03-01T19:02:02;9.93;;;6.27;;
18780;SDS011;9519;51.890;8.970;2023-03-01T19:07:04;10.70;;;5.67;;
18780;SDS011;9519;51.890;8.970;2023-03-01T19:12:08;11.07;;;6.17;;
18780;SDS011;9519;51.890;8.970;2023-03-01T19:17:10;13.23;;;6.77;;
18780;SDS011;9519;51.890;8.970;2023-03-01T19:22:12;13.13;;;6.47;;
18780;SDS011;9519;51.890;8.970;2023-03-01T19:27:15;12.43;;;6.03;;
18780;SDS011;9519;51.890;8.970;2023-03-01T19:32:18;11.93;;;6.47;;
18780;SDS011;9519;51.890;8.970;2023-03-01T19:37:20;11.50;;;6.87;;
18780;SDS011;9519;51.890;8.970;2023-03-01T19:42:24;15.37;;;7.30;;
18780;SDS011;9519;51.890;8.970;2023-03-01T19:47:27;12.47;;;6.43;;
18780;SDS011;9519;51.890;8.970;2023-03-01T19:52:29;11.90;;;6.60;;
18780;SDS011;9519;51.890;8.970;2023-03-01T19:57:33;9.83;;;5.63;;
18780;SDS011;9519;51.890;8.970;2023-03-01T20:02:35;17.23;;;9.67;;
18780;SDS011;9519;51.890;8.970;2023-03-01T20:07:37;29.23;;;13.73;;
18780;SDS011;9519;51.890;8.970;2023-03-01T20:12:40;28.07;;;13.57;;
18780;SDS011;9519;51.890;8.970;2023-03-01T20:17:42;12.00;;;6.90;;
18780;SDS011;9519;51.890;8.970;2023-03-01T20:22:46;9.47;;;5.63;;
18780;SDS011;9519;51.890;8.970;2023-03-01T20:27:50;9.50;;;5.73;;
18780;SDS011;9519;51.890;8.970;2023-03-01T20:32:52;10.83;;;6.60;;
18780;SDS011;9519;51.890;8.970;2023-03-01T20:37:54;10.27;;;6.13;;
18780;SDS011;9519;51.890;8.970;2023-03-01T20:42:58;10.60;;;6.17;;
18780;SDS011;9519;51.890;8.970;2023-03-01T20:48:01;9.13;;;5.40;;
18780;SDS011;9519;51.890;8.970;2023-03-01T20:53:03;9.37;;;5.40;;
18780;SDS011;9519;51.890;8.970;2023-03-01T20:58:07;12.00;;;5.90;;
18780;SDS011;9519;51.890;8.970;2023-03-01T21:03:09;10.33;;;5.93;;
18780;SDS011;9519;51.890;8.970;2023-03-01T21:08:11;9.67;;;6.00;;
18780;SDS011;9519;51.890;8.970;2023-03-01T21:13:14;10.37;;;6.20;;
18780;SDS011;9519;51.890;8.970;2023-03-01T21:18:16;10.13;;;6.33;;
18780;SDS011;9519;51.890;8.970;2023-03-01T21:23:18;9.97;;;6.43;;
18780;SDS011;9519;51.890;8.970;2023-03-01T21:28:21;10.57;;;5.87;;
18780;SDS011;9519;51.890;8.970;2023-03-01T21:33:23;10.13;;;5.50;;
18780;SDS011;9519;51.890;8.970;2023-03-01T21:38:27;11.83;;;6.10;;
18780;SDS011;9519;51.890;8.970;2023-03-01T21:43:33;9.70;;;6.10;;
18780;SDS011;9519;51.890;8.970;2023-03-01T21:48:35;9.67;;;5.43;;
18780;SDS011;9519;51.890;8.970;2023-03-01T21:53:37;9.33;;;5.27;;
18780;SDS011;9519;51.890;8.970;2023-03-01T21:58:41;9.37;;;5.20;;
18780;SDS011;9519;51.890;8.970;2023-03-01T22:03:43;12.43;;;6.00;;
18780;SDS011;9519;51.890;8.970;2023-03-01T22:08:46;11.30;;;5.40;;
18780;SDS011;9519;51.890;8.970;2023-03-01T22:13:52;13.37;;;6.63;;
18780;SDS011;9519;51.890;8.970;2023-03-01T22:18:56;10.80;;;6.07;;
18780;SDS011;9519;51.890;8.970;2023-03-01T22:23:58;9.90;;;5.77;;
18780;SDS011;9519;51.890;8.970;2023-03-01T22:29:03;9.70;;;5.57;;
18780;SDS011;9519;51.890;8.970;2023-03-01T22:34:07;10.03;;;5.43;;
18780;SDS011;9519;51.890;8.970;2023-03-01T22:39:11;9.43;;;5.13;;
18780;SDS011;9519;51.890;8.970;2023-03-01T22:44:17;8.60;;;5.67;;
18780;SDS011;9519;51.890;8.970;2023-03-01T22:49:22;8.97;;;5.03;;
18780;SDS011;9519;51.890;8.970;2023-03-01T22:54:24;12.53;;;5.70;;
18780;SDS011;9519;51.890;8.970;2023-03-01T22:59:28;8.77;;;5.67;;
18780;SDS011;9519;51.890;8.970;2023-03-01T23:04:30;9.07;;;5.33;;
18780;SDS011;9519;51.890;8.970;2023-03-01T23:09:32;12.90;;;5.93;;
18780;SDS011;9519;51.890;8.970;2023-03-01T23:14:37;9.77;;;6.37;;
18780;SDS011;9519;51.890;8.970;2023-03-01T23:19:40;8.73;;;5.40;;
18780;SDS011;9519;51.890;8.970;2023-03-01T23:24:42;11.10;;;5.53;;
18780;SDS011;9519;51.890;8.970;2023-03-01T23:29:46;9.50;;;5.57;;
18780;SDS011;9519;51.890;8.970;2023-03-01T23:34:48;9.30;;;5.10;;
18780;SDS011;9519;51.890;8.970;2023-03-01T23:39:50;11.60;;;5.60;;
18780;SDS011;9519;51.890;8.970;2023-03-01T23:44:53;8.37;;;5.07;;
18780;SDS011;9519;51.890;8.970;2023-03-01T23:49:55;10.00;;;5.50;;
18780;SDS011;9519;51.890;8.970;2023-03-01T23:54:57;7.93;;;5.27;;
